createdAt,value
2019-03-05T00:02:04.114Z,4.90
2019-03-05T00:04:33.757Z,4.70
2019-03-05T00:07:03.531Z,4.60
2019-03-05T00:09:33.184Z,4.50
2019-03-05T00:12:02.797Z,4.40
2019-03-05T00:14:32.450Z,4.30
2019-03-05T00:17:02.311Z,4.30
2019-03-05T00:19:31.954Z,4.30
2019-03-05T00:22:01.581Z,4.20
2019-03-05T00:24:50.850Z,4.30
2019-03-05T00:27:20.640Z,4.30
2019-03-05T00:30:01.677Z,4.40
2019-03-05T00:32:31.293Z,4.20
2019-03-05T00:35:29.614Z,4.20
2019-03-05T00:38:23.073Z,4.00
2019-03-05T00:41:01.439Z,4.00
2019-03-05T00:43:48.992Z,4.00
2019-03-05T00:46:27.341Z,3.90
2019-03-05T00:49:11.944Z,3.70
2019-03-05T00:52:02.295Z,3.80
2019-03-05T00:54:49.864Z,3.70
2019-03-05T00:57:31.308Z,3.70
2019-03-05T01:00:11.042Z,3.80
2019-03-05T01:03:03.358Z,3.70
2019-03-05T01:05:57.470Z,3.60
2019-03-05T01:08:28.793Z,3.60
2019-03-05T01:10:58.465Z,3.60
2019-03-05T01:13:28.159Z,3.80
2019-03-05T01:15:57.820Z,4.00
2019-03-05T01:18:27.425Z,3.90
2019-03-05T01:20:57.137Z,3.70
2019-03-05T01:23:26.769Z,3.80
2019-03-05T01:25:56.483Z,3.90
2019-03-05T01:28:26.464Z,4.00
2019-03-05T01:31:15.533Z,4.10
2019-03-05T01:34:02.259Z,4.00
2019-03-05T01:36:33.537Z,4.00
2019-03-05T01:39:04.873Z,4.10
2019-03-05T01:41:34.547Z,4.10
2019-03-05T01:44:04.462Z,4.10
2019-03-05T01:46:34.112Z,4.20
2019-03-05T01:49:03.725Z,4.20
2019-03-05T01:51:33.435Z,4.30
2019-03-05T01:54:03.049Z,4.30
2019-03-05T01:56:32.700Z,4.30
2019-03-05T01:59:02.320Z,4.40
2019-03-05T02:01:32.101Z,4.30
2019-03-05T02:04:01.801Z,4.30
2019-03-05T02:06:31.509Z,4.30
2019-03-05T02:09:01.129Z,4.30
2019-03-05T02:11:30.928Z,4.20
2019-03-05T02:14:00.542Z,4.20
2019-03-05T02:16:30.189Z,4.30
2019-03-05T02:19:37.353Z,4.40
2019-03-05T02:22:13.449Z,4.50
2019-03-05T02:24:54.876Z,4.60
2019-03-05T02:27:53.565Z,4.70
2019-03-05T02:30:58.248Z,4.90
2019-03-05T02:33:30.976Z,5.10
2019-03-05T02:36:20.239Z,5.20
2019-03-05T02:39:12.383Z,5.20
2019-03-05T02:41:50.823Z,5.40
2019-03-05T02:44:32.435Z,5.50
2019-03-05T02:47:05.258Z,5.60
2019-03-05T02:49:54.413Z,5.60
2019-03-05T02:52:35.952Z,5.60
2019-03-05T02:55:23.443Z,5.60
2019-03-05T02:57:52.051Z,5.60
2019-03-05T03:00:23.386Z,5.60
2019-03-05T03:02:57.469Z,5.50
2019-03-05T03:05:31.711Z,5.60
2019-03-05T03:08:01.362Z,5.60
2019-03-05T03:10:31.058Z,5.60
2019-03-05T03:13:00.703Z,5.60
2019-03-05T03:15:30.371Z,5.50
2019-03-05T03:18:00.012Z,5.40
2019-03-05T03:20:29.635Z,5.50
2019-03-05T03:22:59.347Z,5.50
2019-03-05T03:25:29.151Z,5.40
2019-03-05T03:27:58.852Z,5.40
2019-03-05T03:30:28.600Z,5.30
2019-03-05T03:32:58.300Z,5.30
2019-03-05T03:35:27.945Z,5.20
2019-03-05T03:37:57.589Z,5.30
2019-03-05T03:40:27.205Z,5.30
2019-03-05T03:42:56.862Z,5.30
2019-03-05T03:45:28.265Z,5.20
2019-03-05T03:47:57.902Z,5.20
2019-03-05T03:50:27.538Z,5.20
2019-03-05T03:52:57.163Z,5.20
2019-03-05T03:55:27.039Z,5.10
2019-03-05T03:57:56.688Z,5.10
2019-03-05T04:00:26.450Z,5.10
2019-03-05T04:02:56.151Z,5.10
2019-03-05T04:05:25.785Z,5.10
2019-03-05T04:07:55.580Z,4.90
2019-03-05T04:10:25.269Z,5.00
2019-03-05T04:12:54.880Z,5.00
2019-03-05T04:15:24.533Z,5.00
2019-03-05T04:17:54.222Z,5.00
2019-03-05T04:20:27.973Z,5.00
2019-03-05T04:22:57.583Z,5.00
2019-03-05T04:25:27.246Z,5.10
2019-03-05T04:27:57.015Z,5.10
2019-03-05T04:30:26.653Z,5.10
2019-03-05T04:32:56.271Z,5.10
2019-03-05T04:35:25.911Z,5.00
2019-03-05T04:37:55.534Z,5.10
2019-03-05T04:40:25.168Z,5.10
2019-03-05T04:42:54.781Z,5.00
2019-03-05T04:45:43.226Z,5.00
2019-03-05T04:48:13.184Z,5.00
2019-03-05T04:50:44.469Z,5.00
2019-03-05T04:53:14.085Z,5.10
2019-03-05T04:55:43.760Z,5.00
2019-03-05T04:58:13.362Z,5.00
2019-03-05T05:00:43.006Z,5.00
2019-03-05T05:03:12.693Z,5.00
2019-03-05T05:05:42.405Z,5.10
2019-03-05T05:08:12.020Z,5.00
2019-03-05T05:10:41.664Z,4.80
2019-03-05T05:13:11.278Z,4.90
2019-03-05T05:15:40.966Z,4.70
2019-03-05T05:18:10.580Z,4.80
2019-03-05T05:20:40.224Z,4.60
2019-03-05T05:23:09.842Z,4.60
2019-03-05T05:25:39.533Z,4.60
2019-03-05T05:28:09.154Z,4.50
2019-03-05T05:30:40.633Z,4.50
2019-03-05T05:33:10.244Z,4.40
2019-03-05T05:35:39.995Z,4.20
2019-03-05T05:38:09.611Z,4.20
2019-03-05T05:40:44.673Z,4.10
2019-03-05T05:43:22.746Z,4.20
2019-03-05T05:45:53.668Z,4.20
2019-03-05T05:48:23.256Z,4.20
2019-03-05T05:50:53.041Z,4.30
2019-03-05T05:53:22.661Z,4.10
2019-03-05T05:55:52.299Z,4.00
2019-03-05T05:58:21.922Z,3.90
2019-03-05T06:00:53.272Z,4.00
2019-03-05T06:03:22.956Z,3.90
2019-03-05T06:05:52.784Z,4.00
2019-03-05T06:08:22.473Z,4.00
2019-03-05T06:10:53.177Z,3.90
2019-03-05T06:13:22.944Z,3.40
2019-03-05T06:15:52.594Z,3.70
2019-03-05T06:18:22.277Z,3.90
2019-03-05T06:20:52.010Z,5.00
2019-03-05T06:23:21.626Z,4.80
2019-03-05T06:25:51.285Z,4.70
2019-03-05T06:28:20.902Z,4.20
2019-03-05T06:30:50.621Z,4.00
2019-03-05T06:33:20.670Z,4.00
2019-03-05T06:35:50.541Z,4.10
2019-03-05T06:38:20.301Z,3.90
2019-03-05T06:40:50.088Z,4.10
2019-03-05T06:43:19.842Z,4.20
2019-03-05T06:45:49.622Z,4.20
2019-03-05T06:48:19.494Z,4.60
2019-03-05T06:50:49.360Z,4.80
2019-03-05T06:53:19.175Z,5.00
2019-03-05T06:55:49.073Z,5.10
2019-03-05T06:58:18.929Z,5.20
2019-03-05T07:00:48.893Z,5.20
2019-03-05T07:03:18.869Z,5.20
2019-03-05T07:06:25.015Z,5.10
2019-03-05T07:09:04.613Z,5.10
2019-03-05T07:11:40.056Z,5.20
2019-03-05T07:14:36.917Z,5.30
2019-03-05T07:17:17.961Z,5.40
2019-03-05T07:19:57.918Z,5.60
2019-03-05T07:22:27.839Z,5.90
2019-03-05T07:24:57.439Z,6.10
2019-03-05T07:27:28.768Z,6.00
2019-03-05T07:30:01.725Z,6.00
2019-03-05T07:32:31.387Z,6.00
2019-03-05T07:35:00.997Z,6.00
2019-03-05T07:37:30.646Z,6.00
2019-03-05T07:40:00.386Z,6.30
2019-03-05T07:42:29.968Z,6.20
2019-03-05T07:44:59.585Z,6.20
2019-03-05T07:47:29.238Z,6.20
2019-03-05T07:49:59.519Z,6.20
2019-03-05T07:52:29.230Z,6.40
2019-03-05T07:54:58.848Z,6.40
2019-03-05T07:57:28.642Z,6.40
2019-03-05T07:59:58.262Z,6.60
2019-03-05T08:02:27.921Z,6.80
2019-03-05T08:04:57.550Z,7.00
2019-03-05T08:07:27.201Z,7.30
2019-03-05T08:09:59.530Z,7.10
2019-03-05T08:12:35.036Z,6.90
2019-03-05T08:15:30.014Z,6.90
2019-03-05T08:17:59.802Z,7.00
2019-03-05T08:20:29.594Z,6.90
2019-03-05T08:22:59.314Z,6.90
2019-03-05T08:25:28.933Z,6.90
2019-03-05T08:27:58.582Z,7.00
2019-03-05T08:30:28.201Z,7.40
2019-03-05T08:32:58.240Z,8.20
2019-03-05T08:35:27.856Z,8.80
2019-03-05T08:37:57.603Z,9.00
2019-03-05T08:40:27.214Z,9.30
2019-03-05T08:42:56.862Z,10.10
2019-03-05T08:45:29.906Z,10.20
2019-03-05T08:48:00.281Z,10.90
2019-03-05T08:50:32.749Z,11.20
2019-03-05T08:53:02.771Z,11.20
2019-03-05T08:55:32.383Z,10.90
2019-03-05T08:58:02.361Z,11.00
2019-03-05T09:00:32.348Z,10.80
2019-03-05T09:03:02.998Z,10.10
2019-03-05T09:05:33.234Z,9.90
2019-03-05T09:08:03.305Z,9.40
2019-03-05T09:10:33.250Z,9.20
2019-03-05T09:13:02.941Z,9.30
2019-03-05T09:15:32.685Z,9.00
2019-03-05T09:18:02.442Z,9.00
2019-03-05T09:20:32.093Z,9.10
2019-03-05T09:23:21.081Z,9.50
2019-03-05T09:25:50.770Z,9.60
2019-03-05T09:28:20.549Z,9.60
2019-03-05T09:30:50.474Z,10.00
2019-03-05T09:33:20.131Z,10.20
2019-03-05T09:35:49.756Z,10.90
2019-03-05T09:38:19.400Z,10.90
2019-03-05T09:40:49.137Z,10.30
2019-03-05T09:43:18.789Z,10.90
2019-03-05T09:45:48.411Z,11.20
2019-03-05T09:48:18.081Z,11.00
2019-03-05T09:50:47.767Z,11.70
2019-03-05T09:53:17.422Z,13.00
2019-03-05T09:55:47.066Z,14.50
2019-03-05T09:58:16.786Z,12.70
2019-03-05T10:00:46.509Z,11.70
2019-03-05T10:03:18.394Z,11.20
2019-03-05T10:05:47.605Z,10.60
2019-03-05T10:08:17.362Z,10.20
2019-03-05T10:10:47.005Z,10.20
2019-03-05T10:13:16.626Z,10.20
2019-03-05T10:15:46.274Z,10.20
2019-03-05T10:18:15.910Z,10.10
2019-03-05T10:20:45.567Z,10.10
2019-03-05T10:23:15.203Z,10.10
2019-03-05T10:25:45.425Z,10.10
2019-03-05T10:28:15.428Z,10.20
2019-03-05T10:30:57.920Z,10.40
2019-03-05T10:33:29.854Z,10.40
2019-03-05T10:35:59.897Z,10.00
2019-03-05T10:38:29.916Z,9.90
2019-03-05T10:41:02.059Z,9.90
2019-03-05T10:43:32.264Z,9.90
2019-03-05T10:46:03.191Z,9.90
2019-03-05T10:48:33.609Z,9.90
2019-03-05T10:51:03.793Z,10.70
2019-03-05T10:53:34.118Z,10.80
2019-03-05T10:56:04.853Z,10.60
2019-03-05T10:58:34.865Z,10.80
2019-03-05T11:01:07.180Z,10.80
2019-03-05T11:03:37.238Z,10.60
2019-03-05T11:06:08.535Z,10.90
2019-03-05T11:08:38.451Z,10.80
2019-03-05T11:11:13.620Z,11.30
2019-03-05T11:13:39.802Z,11.10
2019-03-05T11:16:09.982Z,11.30
2019-03-05T11:18:40.011Z,11.50
2019-03-05T11:21:09.790Z,12.30
2019-03-05T11:23:39.560Z,13.10
2019-03-05T11:26:09.222Z,14.30
2019-03-05T11:28:38.922Z,15.10
2019-03-05T11:31:09.582Z,15.30
2019-03-05T11:33:39.411Z,15.80
2019-03-05T11:36:09.237Z,15.90
2019-03-05T11:38:39.026Z,15.50
2019-03-05T11:41:08.749Z,15.90
2019-03-05T11:43:38.838Z,16.50
2019-03-05T11:46:11.815Z,17.80
2019-03-05T11:48:41.463Z,17.90
2019-03-05T11:51:11.105Z,16.50
2019-03-05T11:53:40.734Z,16.50
2019-03-05T11:56:10.465Z,16.50
2019-03-05T11:58:40.100Z,15.20
2019-03-05T12:01:11.560Z,15.50
2019-03-05T12:03:41.257Z,14.90
2019-03-05T12:06:10.998Z,14.40
2019-03-05T12:08:41.155Z,14.70
2019-03-05T12:11:10.991Z,14.30
2019-03-05T12:13:40.613Z,13.80
2019-03-05T12:16:10.606Z,13.30
2019-03-05T12:18:40.238Z,13.20
2019-03-05T12:21:09.949Z,12.90
2019-03-05T12:23:39.566Z,12.20
2019-03-05T12:26:09.285Z,12.00
2019-03-05T12:28:38.913Z,11.80
2019-03-05T12:31:08.638Z,11.50
2019-03-05T12:33:38.261Z,11.30
2019-03-05T12:36:08.059Z,11.20
2019-03-05T12:38:38.055Z,11.30
2019-03-05T12:41:07.794Z,11.30
2019-03-05T12:43:37.409Z,11.50
2019-03-05T12:46:07.184Z,11.50
2019-03-05T12:48:40.400Z,11.60
2019-03-05T12:51:09.652Z,12.20
2019-03-05T12:53:39.305Z,13.10
2019-03-05T12:56:09.275Z,13.80
2019-03-05T12:58:38.978Z,14.00
2019-03-05T13:01:09.019Z,14.30
2019-03-05T13:03:38.678Z,14.70
2019-03-05T13:06:08.306Z,15.00
2019-03-05T13:08:37.958Z,14.20
2019-03-05T13:11:09.482Z,14.30
2019-03-05T13:13:38.935Z,14.10
2019-03-05T13:16:08.562Z,13.90
2019-03-05T13:18:38.256Z,14.10
2019-03-05T13:21:09.366Z,14.20
2019-03-05T13:23:39.345Z,14.00
2019-03-05T13:26:09.362Z,13.10
2019-03-05T13:28:40.497Z,12.90
2019-03-05T13:31:10.662Z,12.80
2019-03-05T13:33:41.908Z,12.20
2019-03-05T13:36:13.328Z,12.10
2019-03-05T13:38:45.357Z,12.00
2019-03-05T13:41:15.708Z,11.80
2019-03-05T13:43:45.805Z,11.50
2019-03-05T13:46:25.844Z,11.40
2019-03-05T13:49:08.819Z,11.50
2019-03-05T13:51:50.372Z,11.30
2019-03-05T13:54:56.194Z,11.20
2019-03-05T13:57:47.101Z,11.20
2019-03-05T14:00:17.449Z,11.20
2019-03-05T14:03:07.329Z,11.20
2019-03-05T14:05:55.867Z,11.10
2019-03-05T14:08:40.810Z,11.10
2019-03-05T14:11:10.635Z,11.00
2019-03-05T14:13:40.434Z,10.90
2019-03-05T14:16:12.082Z,10.90
2019-03-05T14:18:42.041Z,11.10
2019-03-05T14:21:12.013Z,11.00
2019-03-05T14:23:41.818Z,11.10
2019-03-05T14:26:11.439Z,11.00
2019-03-05T14:28:41.107Z,11.00
2019-03-05T14:31:10.879Z,11.00
2019-03-05T14:33:40.691Z,11.00
2019-03-05T14:36:10.413Z,11.00
2019-03-05T14:38:40.107Z,11.00
2019-03-05T14:41:09.983Z,11.00
2019-03-05T14:43:39.678Z,11.00
2019-03-05T14:46:09.389Z,11.00
2019-03-05T14:48:39.207Z,11.00
2019-03-05T14:51:10.621Z,11.00
2019-03-05T14:53:40.385Z,11.20
2019-03-05T14:56:10.247Z,11.20
2019-03-05T14:58:39.883Z,11.10
2019-03-05T15:01:10.702Z,11.10
2019-03-05T15:03:40.310Z,11.10
2019-03-05T15:06:10.037Z,11.10
2019-03-05T15:08:39.664Z,11.00
2019-03-05T15:11:09.411Z,11.00
2019-03-05T15:13:39.041Z,10.90
2019-03-05T15:16:08.746Z,10.90
2019-03-05T15:18:38.428Z,10.90
2019-03-05T15:21:08.220Z,10.90
2019-03-05T15:23:37.883Z,11.00
2019-03-05T15:26:07.552Z,11.00
2019-03-05T15:28:37.229Z,11.00
2019-03-05T15:31:07.068Z,11.10
2019-03-05T15:33:36.750Z,11.10
2019-03-05T15:36:06.530Z,11.10
2019-03-05T15:38:36.290Z,11.10
2019-03-05T15:41:06.080Z,11.10
2019-03-05T15:43:35.776Z,11.20
2019-03-05T15:46:05.747Z,11.30
2019-03-05T15:48:35.378Z,11.40
2019-03-05T15:51:05.944Z,11.50
2019-03-05T15:53:35.620Z,11.50
2019-03-05T15:56:05.253Z,11.40
2019-03-05T15:58:34.902Z,11.50
2019-03-05T16:01:04.862Z,11.50
2019-03-05T16:03:34.649Z,11.50
2019-03-05T16:06:04.341Z,11.40
2019-03-05T16:08:33.970Z,11.40
2019-03-05T16:11:03.778Z,11.50
2019-03-05T16:13:33.427Z,11.70
2019-03-05T16:16:03.055Z,11.70
2019-03-05T16:18:32.680Z,11.60
2019-03-05T16:21:03.940Z,11.30
2019-03-05T16:23:33.709Z,11.20
2019-03-05T16:26:03.432Z,11.10
2019-03-05T16:28:33.067Z,11.10
2019-03-05T16:31:11.373Z,11.00
2019-03-05T16:33:45.994Z,11.10
2019-03-05T16:36:17.270Z,11.00
2019-03-05T16:41:46.963Z,11.20
2019-03-05T16:44:24.424Z,11.90
2019-03-05T16:46:58.606Z,11.40
2019-03-05T16:49:45.152Z,11.20
2019-03-05T16:52:16.656Z,11.10
2019-03-05T16:55:03.081Z,11.00
2019-03-05T16:57:37.349Z,10.90
2019-03-05T17:00:20.739Z,10.70
2019-03-05T17:02:52.081Z,10.70
2019-03-05T17:05:31.375Z,10.70
2019-03-05T17:08:08.434Z,10.70
2019-03-05T17:10:39.961Z,10.70
2019-03-05T17:13:09.741Z,10.60
2019-03-05T17:15:39.381Z,10.60
2019-03-05T17:18:09.009Z,10.60
2019-03-05T17:20:38.648Z,10.60
2019-03-05T17:23:08.638Z,10.50
2019-03-05T17:25:38.422Z,10.50
2019-03-05T17:28:08.041Z,10.50
2019-03-05T17:30:37.693Z,10.40
2019-03-05T17:33:07.517Z,10.30
2019-03-05T17:35:37.166Z,10.30
2019-03-05T17:38:06.966Z,10.30
2019-03-05T17:40:36.631Z,10.70
2019-03-05T17:43:06.385Z,11.10
2019-03-05T17:45:36.080Z,11.00
2019-03-05T17:48:05.714Z,10.80
2019-03-05T17:50:35.365Z,10.60
2019-03-05T17:53:05.115Z,10.40
2019-03-05T17:55:34.767Z,10.20
2019-03-05T17:58:04.535Z,10.20
2019-03-05T18:00:35.962Z,10.10
2019-03-05T18:03:05.930Z,10.10
2019-03-05T18:05:35.569Z,10.00
2019-03-05T18:08:05.189Z,9.90
2019-03-05T18:10:34.845Z,9.90
2019-03-05T18:13:04.596Z,9.80
2019-03-05T18:15:34.237Z,9.80
2019-03-05T18:18:03.867Z,9.70
2019-03-05T18:20:34.142Z,9.60
2019-03-05T18:23:03.955Z,9.50
2019-03-05T18:25:33.861Z,9.50
2019-03-05T18:28:03.554Z,9.30
2019-03-05T18:30:33.353Z,9.20
2019-03-05T18:33:03.239Z,9.20
2019-03-05T18:35:32.880Z,9.30
2019-03-05T18:38:02.620Z,9.10
2019-03-05T18:40:32.198Z,9.00
2019-03-05T18:43:02.255Z,9.00
2019-03-05T18:45:37.425Z,8.90
2019-03-05T18:48:07.138Z,8.90
2019-03-05T18:50:36.781Z,8.70
2019-03-05T18:53:06.577Z,8.60
2019-03-05T18:55:36.202Z,8.60
2019-03-05T18:58:05.919Z,8.60
2019-03-05T19:00:36.717Z,8.60
2019-03-05T19:03:09.742Z,8.50
2019-03-05T19:05:39.738Z,8.30
2019-03-05T19:08:10.050Z,8.20
2019-03-05T19:10:40.341Z,8.20
2019-03-05T19:13:10.027Z,8.10
2019-03-05T19:15:39.814Z,8.10
2019-03-05T19:18:09.520Z,8.00
2019-03-05T19:20:39.829Z,8.00
2019-03-05T19:23:09.776Z,7.90
2019-03-05T19:25:42.372Z,7.80
2019-03-05T19:28:12.493Z,7.50
2019-03-05T19:30:47.045Z,7.50
2019-03-05T19:33:17.334Z,7.50
2019-03-05T19:35:47.189Z,7.50
2019-03-05T19:38:16.914Z,7.50
2019-03-05T19:40:48.073Z,7.40
2019-03-05T19:43:17.718Z,7.50
2019-03-05T19:45:47.329Z,7.40
2019-03-05T19:48:16.983Z,7.40
2019-03-05T19:50:46.794Z,7.30
2019-03-05T19:53:16.628Z,7.30
2019-03-05T19:55:46.317Z,7.20
2019-03-05T19:58:16.910Z,7.20
2019-03-05T20:00:52.855Z,7.20
2019-03-05T20:03:22.588Z,7.30
2019-03-05T20:05:52.350Z,7.20
2019-03-05T20:08:22.069Z,7.20
2019-03-05T20:10:51.759Z,7.20
2019-03-05T20:13:21.845Z,7.10
2019-03-05T20:15:51.537Z,7.00
2019-03-05T20:18:21.183Z,7.00
2019-03-05T20:20:50.806Z,7.00
2019-03-05T20:23:20.530Z,6.90
2019-03-05T20:25:50.149Z,7.00
2019-03-05T20:28:19.786Z,7.00
2019-03-05T20:30:49.474Z,7.00
2019-03-05T20:33:19.358Z,6.90
2019-03-05T20:35:49.287Z,7.00
2019-03-05T20:38:19.003Z,7.10
2019-03-05T20:40:48.703Z,7.00
2019-03-05T20:43:18.477Z,7.00
2019-03-05T20:45:50.800Z,6.80
2019-03-05T20:48:20.514Z,6.80
2019-03-05T20:50:50.137Z,6.80
2019-03-05T20:53:19.922Z,6.80
2019-03-05T20:55:49.541Z,6.80
2019-03-05T20:58:19.189Z,6.50
2019-03-05T21:00:48.878Z,6.50
2019-03-05T21:03:18.526Z,6.50
2019-03-05T21:05:48.986Z,6.40
2019-03-05T21:08:18.697Z,6.40
2019-03-05T21:10:48.382Z,6.50
2019-03-05T21:13:18.187Z,6.60
2019-03-05T21:15:47.804Z,6.70
2019-03-05T21:18:19.658Z,6.70
2019-03-05T21:20:49.412Z,6.50
2019-03-05T21:23:19.502Z,6.40
2019-03-05T21:25:49.136Z,6.50
2019-03-05T21:28:18.781Z,6.60
2019-03-05T21:30:48.401Z,6.50
2019-03-05T21:33:18.044Z,6.40
2019-03-05T21:35:47.830Z,6.40
2019-03-05T21:38:17.578Z,6.40
2019-03-05T21:40:47.282Z,6.40
2019-03-05T21:43:17.064Z,6.40
2019-03-05T21:45:56.110Z,6.40
2019-03-05T21:48:25.760Z,6.30
2019-03-05T21:50:55.378Z,6.50
2019-03-05T21:53:25.044Z,6.50
2019-03-05T21:55:54.992Z,6.40
2019-03-05T21:58:24.621Z,6.00
2019-03-05T22:00:54.274Z,5.90
2019-03-05T22:03:23.898Z,6.00
2019-03-05T22:05:53.551Z,5.80
2019-03-05T22:08:23.271Z,5.90
2019-03-05T22:10:52.986Z,6.00
2019-03-05T22:13:22.862Z,5.90
2019-03-05T22:15:52.510Z,5.70
2019-03-05T22:18:22.130Z,5.70
2019-03-05T22:20:51.773Z,5.60
2019-03-05T22:23:21.394Z,5.30
2019-03-05T22:25:51.042Z,5.30
2019-03-05T22:28:20.661Z,5.40
2019-03-05T22:30:50.377Z,5.30
2019-03-05T22:33:20.064Z,5.30
2019-03-05T22:35:49.710Z,5.00
2019-03-05T22:38:19.326Z,5.00
2019-03-05T22:40:48.973Z,4.90
2019-03-05T22:43:18.790Z,4.70
2019-03-05T22:45:48.443Z,4.50
2019-03-05T22:48:18.063Z,4.50
2019-03-05T22:50:47.702Z,4.60
2019-03-05T22:53:17.441Z,4.70
2019-03-05T22:55:47.092Z,4.60
2019-03-05T22:58:16.714Z,4.70
2019-03-05T23:01:02.712Z,4.60
2019-03-05T23:03:41.070Z,4.40
2019-03-05T23:06:12.638Z,4.40
2019-03-05T23:08:42.256Z,4.40
2019-03-05T23:11:11.969Z,4.30
2019-03-05T23:13:42.073Z,4.30
2019-03-05T23:16:13.226Z,4.30
2019-03-05T23:18:43.013Z,4.20
2019-03-05T23:21:13.094Z,4.20
2019-03-05T23:23:43.317Z,4.20
2019-03-05T23:26:13.641Z,4.10
2019-03-05T23:28:43.326Z,4.10
2019-03-05T23:31:13.412Z,4.10
2019-03-05T23:33:43.113Z,3.90
2019-03-05T23:36:12.746Z,3.90
2019-03-05T23:38:42.365Z,3.70
2019-03-05T23:41:12.082Z,3.80
2019-03-05T23:43:41.765Z,3.70
2019-03-05T23:46:11.477Z,3.70
2019-03-05T23:48:41.098Z,3.60
2019-03-05T23:51:10.744Z,3.10
2019-03-05T23:53:40.394Z,3.00
2019-03-05T23:56:10.034Z,3.30
2019-03-05T23:58:39.722Z,3.40
